sensor_id;sensor_type;location;lat;lon;timestamp;temperature;humidity
17128;DHT22;8679;50.842;4.322;2023-04-19T15:43:17;18.40;99.90
17128;DHT22;8679;50.842;4.322;2023-04-19T15:45:43;30.40;1.00
17128;DHT22;8679;50.842;4.322;2023-04-19T15:48:09;30.20;1.00
17128;DHT22;8679;50.842;4.322;2023-04-19T15:50:36;30.20;1.00
17128;DHT22;8679;50.842;4.322;2023-04-19T15:53:03;29.90;1.00
17128;DHT22;8679;50.842;4.322;2023-04-19T15:55:29;30.30;1.00
17128;DHT22;8679;50.842;4.322;2023-04-19T15:57:55;30.50;1.00
17128;DHT22;8679;50.842;4.322;2023-04-19T16:00:21;30.30;1.00
17128;DHT22;8679;50.842;4.322;2023-04-19T16:02:47;30.60;1.00
17128;DHT22;8679;50.842;4.322;2023-04-19T16:05:13;31.00;1.00
17128;DHT22;8679;50.842;4.322;2023-04-19T16:07:41;30.40;1.00
17128;DHT22;8679;50.842;4.322;2023-04-19T16:10:08;30.30;1.00
17128;DHT22;8679;50.842;4.322;2023-04-19T16:12:33;29.30;1.00
17128;DHT22;8679;50.842;4.322;2023-04-19T16:14:59;30.20;1.00
17128;DHT22;8679;50.842;4.322;2023-04-19T16:17:25;30.20;1.00
17128;DHT22;8679;50.842;4.322;2023-04-19T16:19:50;30.30;1.00
17128;DHT22;8679;50.842;4.322;2023-04-19T16:22:16;30.30;1.00
17128;DHT22;8679;50.842;4.322;2023-04-19T16:24:42;30.30;1.00
17128;DHT22;8679;50.842;4.322;2023-04-19T16:27:07;30.40;1.00
17128;DHT22;8679;50.842;4.322;2023-04-19T16:29:33;30.40;1.00
17128;DHT22;8679;50.842;4.322;2023-04-19T16:31:59;30.90;1.00
17128;DHT22;8679;50.842;4.322;2023-04-19T16:34:25;30.80;1.00
17128;DHT22;8679;50.842;4.322;2023-04-19T16:36:52;30.40;1.00
17128;DHT22;8679;50.842;4.322;2023-04-19T16:39:18;30.50;1.00
17128;DHT22;8679;50.842;4.322;2023-04-19T16:41:45;30.40;1.00
17128;DHT22;8679;50.842;4.322;2023-04-19T16:44:10;30.20;1.00
17128;DHT22;8679;50.842;4.322;2023-04-19T16:46:36;29.80;1.00
17128;DHT22;8679;50.842;4.322;2023-04-19T16:49:03;29.60;1.00
17128;DHT22;8679;50.842;4.322;2023-04-19T16:51:29;29.80;1.00
17128;DHT22;8679;50.842;4.322;2023-04-19T16:53:54;30.00;1.00
17128;DHT22;8679;50.842;4.322;2023-04-19T16:56:20;29.70;1.00
17128;DHT22;8679;50.842;4.322;2023-04-19T16:58:46;29.10;1.00
17128;DHT22;8679;50.842;4.322;2023-04-19T17:01:13;29.30;1.00
17128;DHT22;8679;50.842;4.322;2023-04-19T17:03:38;29.50;1.00
17128;DHT22;8679;50.842;4.322;2023-04-19T17:06:04;28.80;1.00
17128;DHT22;8679;50.842;4.322;2023-04-19T17:08:31;28.90;1.00
17128;DHT22;8679;50.842;4.322;2023-04-19T17:10:57;28.90;1.00
17128;DHT22;8679;50.842;4.322;2023-04-19T17:13:22;28.50;1.00
17128;DHT22;8679;50.842;4.322;2023-04-19T17:15:48;28.60;1.00
17128;DHT22;8679;50.842;4.322;2023-04-19T17:18:14;28.50;1.00
17128;DHT22;8679;50.842;4.322;2023-04-19T17:20:39;28.40;1.00
17128;DHT22;8679;50.842;4.322;2023-04-19T17:23:05;28.40;1.00
17128;DHT22;8679;50.842;4.322;2023-04-19T17:25:31;27.90;1.00
17128;DHT22;8679;50.842;4.322;2023-04-19T17:27:57;28.10;1.00
17128;DHT22;8679;50.842;4.322;2023-04-19T17:30:22;28.20;1.00
17128;DHT22;8679;50.842;4.322;2023-04-19T17:32:48;28.10;1.00
17128;DHT22;8679;50.842;4.322;2023-04-19T17:35:14;27.80;1.00
17128;DHT22;8679;50.842;4.322;2023-04-19T17:37:40;27.50;1.00
17128;DHT22;8679;50.842;4.322;2023-04-19T17:40:06;27.30;1.00
17128;DHT22;8679;50.842;4.322;2023-04-19T17:42:31;26.60;1.00
17128;DHT22;8679;50.842;4.322;2023-04-19T17:44:57;26.90;1.00
17128;DHT22;8679;50.842;4.322;2023-04-19T17:47:24;26.90;1.00
17128;DHT22;8679;50.842;4.322;2023-04-19T17:49:50;26.80;1.00
